sensor_id;sensor_type;location;lat;lon;timestamp;P1;durP1;ratioP1;P2;durP2;ratioP2
18302;SDS011;9277;37.980;23.748;2024-03-07T00:00:06;8.75;;;5.50;;
18302;SDS011;9277;37.980;23.748;2024-03-07T00:02:39;7.75;;;4.80;;
18302;SDS011;9277;37.980;23.748;2024-03-07T00:05:08;9.82;;;4.68;;
18302;SDS011;9277;37.980;23.748;2024-03-07T00:07:34;6.18;;;3.80;;
18302;SDS011;9277;37.980;23.748;2024-03-07T00:10:01;8.43;;;4.13;;
18302;SDS011;9277;37.980;23.748;2024-03-07T00:12:30;9.73;;;3.88;;
18302;SDS011;9277;37.980;23.748;2024-03-07T00:14:58;9.85;;;4.03;;
18302;SDS011;9277;37.980;23.748;2024-03-07T00:17:24;6.57;;;3.90;;
18302;SDS011;9277;37.980;23.748;2024-03-07T00:19:51;5.80;;;3.90;;
18302;SDS011;9277;37.980;23.748;2024-03-07T00:22:19;7.88;;;4.10;;
18302;SDS011;9277;37.980;23.748;2024-03-07T00:24:46;6.47;;;4.30;;
18302;SDS011;9277;37.980;23.748;2024-03-07T00:27:13;7.28;;;4.60;;
18302;SDS011;9277;37.980;23.748;2024-03-07T00:29:40;8.02;;;5.00;;
18302;SDS011;9277;37.980;23.748;2024-03-07T00:32:08;6.32;;;4.40;;
18302;SDS011;9277;37.980;23.748;2024-03-07T00:34:35;10.20;;;5.32;;
18302;SDS011;9277;37.980;23.748;2024-03-07T00:37:02;9.48;;;6.10;;
18302;SDS011;9277;37.980;23.748;2024-03-07T00:39:31;11.57;;;5.80;;
18302;SDS011;9277;37.980;23.748;2024-03-07T00:41:58;9.38;;;5.13;;
18302;SDS011;9277;37.980;23.748;2024-03-07T00:44:25;8.80;;;5.38;;
18302;SDS011;9277;37.980;23.748;2024-03-07T00:46:52;11.07;;;5.57;;
18302;SDS011;9277;37.980;23.748;2024-03-07T00:49:19;10.55;;;6.18;;
18302;SDS011;9277;37.980;23.748;2024-03-07T00:51:45;13.07;;;5.90;;
18302;SDS011;9277;37.980;23.748;2024-03-07T00:54:12;10.02;;;5.85;;
18302;SDS011;9277;37.980;23.748;2024-03-07T00:56:40;13.80;;;5.38;;
18302;SDS011;9277;37.980;23.748;2024-03-07T00:59:07;7.97;;;5.10;;
18302;SDS011;9277;37.980;23.748;2024-03-07T01:01:34;9.93;;;4.85;;
18302;SDS011;9277;37.980;23.748;2024-03-07T01:04:01;12.55;;;5.30;;
18302;SDS011;9277;37.980;23.748;2024-03-07T01:06:28;11.25;;;5.10;;
18302;SDS011;9277;37.980;23.748;2024-03-07T01:08:55;8.45;;;5.13;;
18302;SDS011;9277;37.980;23.748;2024-03-07T01:11:22;9.05;;;4.78;;
18302;SDS011;9277;37.980;23.748;2024-03-07T01:13:50;9.02;;;5.03;;
18302;SDS011;9277;37.980;23.748;2024-03-07T01:16:17;7.47;;;4.65;;
18302;SDS011;9277;37.980;23.748;2024-03-07T01:18:44;7.82;;;4.35;;
18302;SDS011;9277;37.980;23.748;2024-03-07T01:21:10;6.38;;;4.35;;
18302;SDS011;9277;37.980;23.748;2024-03-07T01:23:38;7.50;;;4.70;;
18302;SDS011;9277;37.980;23.748;2024-03-07T01:26:05;7.63;;;4.00;;
18302;SDS011;9277;37.980;23.748;2024-03-07T01:28:33;6.45;;;3.92;;
18302;SDS011;9277;37.980;23.748;2024-03-07T01:31:02;6.70;;;4.03;;
18302;SDS011;9277;37.980;23.748;2024-03-07T01:33:28;5.53;;;4.25;;
18302;SDS011;9277;37.980;23.748;2024-03-07T01:35:55;7.07;;;4.13;;
18302;SDS011;9277;37.980;23.748;2024-03-07T01:38:22;9.13;;;4.18;;
18302;SDS011;9277;37.980;23.748;2024-03-07T01:40:48;8.43;;;4.00;;
18302;SDS011;9277;37.980;23.748;2024-03-07T01:43:15;7.32;;;4.65;;
18302;SDS011;9277;37.980;23.748;2024-03-07T01:45:42;9.23;;;5.15;;
18302;SDS011;9277;37.980;23.748;2024-03-07T01:48:10;8.73;;;5.07;;
18302;SDS011;9277;37.980;23.748;2024-03-07T01:50:38;9.48;;;5.05;;
18302;SDS011;9277;37.980;23.748;2024-03-07T01:53:05;10.40;;;4.88;;
18302;SDS011;9277;37.980;23.748;2024-03-07T01:55:32;8.23;;;4.22;;
18302;SDS011;9277;37.980;23.748;2024-03-07T01:57:59;8.75;;;4.88;;
18302;SDS011;9277;37.980;23.748;2024-03-07T02:00:28;11.50;;;4.78;;
18302;SDS011;9277;37.980;23.748;2024-03-07T02:02:55;8.57;;;5.28;;
18302;SDS011;9277;37.980;23.748;2024-03-07T02:05:23;7.00;;;4.68;;
18302;SDS011;9277;37.980;23.748;2024-03-07T02:07:50;11.35;;;5.13;;
18302;SDS011;9277;37.980;23.748;2024-03-07T02:10:16;8.18;;;4.90;;
18302;SDS011;9277;37.980;23.748;2024-03-07T02:12:43;8.48;;;5.45;;
18302;SDS011;9277;37.980;23.748;2024-03-07T02:15:11;6.85;;;4.63;;
18302;SDS011;9277;37.980;23.748;2024-03-07T02:17:39;7.70;;;4.85;;
18302;SDS011;9277;37.980;23.748;2024-03-07T02:20:06;7.47;;;4.93;;
18302;SDS011;9277;37.980;23.748;2024-03-07T02:22:34;11.52;;;5.40;;
18302;SDS011;9277;37.980;23.748;2024-03-07T02:25:01;16.58;;;5.70;;
18302;SDS011;9277;37.980;23.748;2024-03-07T02:27:28;9.25;;;5.18;;
18302;SDS011;9277;37.980;23.748;2024-03-07T02:29:54;6.30;;;4.78;;
18302;SDS011;9277;37.980;23.748;2024-03-07T02:32:21;8.00;;;4.50;;
18302;SDS011;9277;37.980;23.748;2024-03-07T02:34:49;10.18;;;4.72;;
18302;SDS011;9277;37.980;23.748;2024-03-07T02:37:15;9.52;;;4.32;;
18302;SDS011;9277;37.980;23.748;2024-03-07T02:39:44;8.80;;;4.88;;
18302;SDS011;9277;37.980;23.748;2024-03-07T02:42:10;8.07;;;4.55;;
18302;SDS011;9277;37.980;23.748;2024-03-07T02:44:37;7.40;;;4.50;;
18302;SDS011;9277;37.980;23.748;2024-03-07T02:47:05;5.68;;;4.28;;
18302;SDS011;9277;37.980;23.748;2024-03-07T02:49:31;10.63;;;4.93;;
18302;SDS011;9277;37.980;23.748;2024-03-07T02:51:57;7.63;;;4.15;;
18302;SDS011;9277;37.980;23.748;2024-03-07T02:54:24;4.75;;;3.67;;
18302;SDS011;9277;37.980;23.748;2024-03-07T02:56:52;5.40;;;3.38;;
18302;SDS011;9277;37.980;23.748;2024-03-07T02:59:18;7.43;;;3.53;;
18302;SDS011;9277;37.980;23.748;2024-03-07T03:01:45;4.38;;;3.20;;
18302;SDS011;9277;37.980;23.748;2024-03-07T03:04:12;7.57;;;3.55;;
18302;SDS011;9277;37.980;23.748;2024-03-07T03:06:39;6.18;;;3.67;;
18302;SDS011;9277;37.980;23.748;2024-03-07T03:09:06;4.15;;;3.00;;
18302;SDS011;9277;37.980;23.748;2024-03-07T03:11:38;8.55;;;3.90;;
18302;SDS011;9277;37.980;23.748;2024-03-07T03:14:06;4.78;;;3.33;;
18302;SDS011;9277;37.980;23.748;2024-03-07T03:16:33;6.40;;;4.15;;
18302;SDS011;9277;37.980;23.748;2024-03-07T03:19:00;6.35;;;3.30;;
18302;SDS011;9277;37.980;23.748;2024-03-07T03:21:27;5.82;;;3.88;;
18302;SDS011;9277;37.980;23.748;2024-03-07T03:23:54;6.78;;;4.38;;
18302;SDS011;9277;37.980;23.748;2024-03-07T03:26:21;10.35;;;4.10;;
18302;SDS011;9277;37.980;23.748;2024-03-07T03:28:48;7.13;;;3.95;;
18302;SDS011;9277;37.980;23.748;2024-03-07T03:31:17;8.18;;;3.95;;
18302;SDS011;9277;37.980;23.748;2024-03-07T03:33:45;6.78;;;4.13;;
18302;SDS011;9277;37.980;23.748;2024-03-07T03:36:12;7.45;;;4.43;;
18302;SDS011;9277;37.980;23.748;2024-03-07T03:38:39;8.68;;;4.53;;
18302;SDS011;9277;37.980;23.748;2024-03-07T03:41:06;8.48;;;4.40;;
18302;SDS011;9277;37.980;23.748;2024-03-07T03:43:33;8.85;;;4.00;;
18302;SDS011;9277;37.980;23.748;2024-03-07T03:46:00;7.72;;;4.07;;
18302;SDS011;9277;37.980;23.748;2024-03-07T03:48:29;7.15;;;4.00;;
18302;SDS011;9277;37.980;23.748;2024-03-07T03:50:55;7.30;;;4.13;;
18302;SDS011;9277;37.980;23.748;2024-03-07T03:53:22;5.45;;;4.32;;
18302;SDS011;9277;37.980;23.748;2024-03-07T03:55:49;8.40;;;4.20;;
18302;SDS011;9277;37.980;23.748;2024-03-07T03:58:15;11.38;;;4.22;;
18302;SDS011;9277;37.980;23.748;2024-03-07T04:00:42;6.63;;;4.03;;
18302;SDS011;9277;37.980;23.748;2024-03-07T04:03:09;8.80;;;4.32;;
18302;SDS011;9277;37.980;23.748;2024-03-07T04:05:37;6.97;;;4.30;;
18302;SDS011;9277;37.980;23.748;2024-03-07T04:08:05;11.38;;;4.80;;
18302;SDS011;9277;37.980;23.748;2024-03-07T04:10:32;7.75;;;4.25;;
18302;SDS011;9277;37.980;23.748;2024-03-07T04:12:59;6.82;;;4.10;;
18302;SDS011;9277;37.980;23.748;2024-03-07T04:15:26;10.13;;;4.45;;
18302;SDS011;9277;37.980;23.748;2024-03-07T04:17:56;5.60;;;4.18;;
18302;SDS011;9277;37.980;23.748;2024-03-07T04:20:22;7.32;;;4.60;;
18302;SDS011;9277;37.980;23.748;2024-03-07T04:22:51;6.95;;;4.63;;
18302;SDS011;9277;37.980;23.748;2024-03-07T04:25:18;12.60;;;4.43;;
18302;SDS011;9277;37.980;23.748;2024-03-07T04:27:45;6.35;;;4.25;;
18302;SDS011;9277;37.980;23.748;2024-03-07T04:30:12;7.03;;;3.92;;
18302;SDS011;9277;37.980;23.748;2024-03-07T04:32:40;8.50;;;4.60;;
18302;SDS011;9277;37.980;23.748;2024-03-07T04:35:08;8.82;;;4.30;;
18302;SDS011;9277;37.980;23.748;2024-03-07T04:37:35;7.40;;;3.90;;
18302;SDS011;9277;37.980;23.748;2024-03-07T04:40:04;9.20;;;4.70;;
18302;SDS011;9277;37.980;23.748;2024-03-07T04:42:40;6.88;;;4.30;;
18302;SDS011;9277;37.980;23.748;2024-03-07T04:45:07;9.00;;;4.65;;
18302;SDS011;9277;37.980;23.748;2024-03-07T04:47:36;8.80;;;4.30;;
18302;SDS011;9277;37.980;23.748;2024-03-07T04:50:03;8.15;;;4.72;;
18302;SDS011;9277;37.980;23.748;2024-03-07T04:52:30;9.13;;;4.93;;
18302;SDS011;9277;37.980;23.748;2024-03-07T04:54:57;12.75;;;7.28;;
18302;SDS011;9277;37.980;23.748;2024-03-07T04:57:25;13.63;;;6.47;;
18302;SDS011;9277;37.980;23.748;2024-03-07T04:59:52;20.95;;;7.88;;
18302;SDS011;9277;37.980;23.748;2024-03-07T05:02:19;13.68;;;6.47;;
18302;SDS011;9277;37.980;23.748;2024-03-07T05:04:45;12.63;;;6.35;;
18302;SDS011;9277;37.980;23.748;2024-03-07T05:07:15;13.25;;;6.13;;
18302;SDS011;9277;37.980;23.748;2024-03-07T05:09:43;10.10;;;5.35;;
18302;SDS011;9277;37.980;23.748;2024-03-07T05:12:09;9.93;;;5.93;;
18302;SDS011;9277;37.980;23.748;2024-03-07T05:14:37;13.20;;;6.15;;
18302;SDS011;9277;37.980;23.748;2024-03-07T05:17:04;10.95;;;5.38;;
18302;SDS011;9277;37.980;23.748;2024-03-07T05:19:34;9.85;;;5.63;;
18302;SDS011;9277;37.980;23.748;2024-03-07T05:22:01;11.13;;;5.80;;
18302;SDS011;9277;37.980;23.748;2024-03-07T05:24:30;9.43;;;5.03;;
18302;SDS011;9277;37.980;23.748;2024-03-07T05:26:57;10.48;;;5.90;;
18302;SDS011;9277;37.980;23.748;2024-03-07T05:29:24;12.50;;;6.20;;
18302;SDS011;9277;37.980;23.748;2024-03-07T05:31:53;12.82;;;6.20;;
18302;SDS011;9277;37.980;23.748;2024-03-07T05:34:20;22.52;;;7.18;;
18302;SDS011;9277;37.980;23.748;2024-03-07T05:36:48;19.08;;;6.78;;
18302;SDS011;9277;37.980;23.748;2024-03-07T05:39:16;12.25;;;6.25;;
18302;SDS011;9277;37.980;23.748;2024-03-07T05:41:44;12.40;;;5.57;;
18302;SDS011;9277;37.980;23.748;2024-03-07T05:44:11;15.68;;;5.50;;
18302;SDS011;9277;37.980;23.748;2024-03-07T05:46:38;13.43;;;5.90;;
18302;SDS011;9277;37.980;23.748;2024-03-07T05:49:08;13.05;;;6.50;;
18302;SDS011;9277;37.980;23.748;2024-03-07T05:51:34;10.20;;;6.00;;
18302;SDS011;9277;37.980;23.748;2024-03-07T05:54:01;11.38;;;6.10;;
18302;SDS011;9277;37.980;23.748;2024-03-07T05:56:32;12.65;;;6.72;;
18302;SDS011;9277;37.980;23.748;2024-03-07T05:59:01;13.82;;;6.00;;
18302;SDS011;9277;37.980;23.748;2024-03-07T06:01:29;11.57;;;5.80;;
18302;SDS011;9277;37.980;23.748;2024-03-07T06:03:59;14.10;;;5.80;;
18302;SDS011;9277;37.980;23.748;2024-03-07T06:06:27;15.00;;;6.15;;
18302;SDS011;9277;37.980;23.748;2024-03-07T06:08:56;11.93;;;5.15;;
18302;SDS011;9277;37.980;23.748;2024-03-07T06:11:23;12.73;;;4.85;;
18302;SDS011;9277;37.980;23.748;2024-03-07T06:13:50;15.77;;;5.65;;
18302;SDS011;9277;37.980;23.748;2024-03-07T06:16:17;8.82;;;5.13;;
18302;SDS011;9277;37.980;23.748;2024-03-07T06:18:45;9.88;;;4.60;;
18302;SDS011;9277;37.980;23.748;2024-03-07T06:21:12;16.35;;;6.07;;
18302;SDS011;9277;37.980;23.748;2024-03-07T06:23:41;12.63;;;5.60;;
18302;SDS011;9277;37.980;23.748;2024-03-07T06:26:12;11.70;;;5.00;;
18302;SDS011;9277;37.980;23.748;2024-03-07T06:28:41;11.98;;;5.50;;
18302;SDS011;9277;37.980;23.748;2024-03-07T06:31:08;8.35;;;4.60;;
18302;SDS011;9277;37.980;23.748;2024-03-07T06:33:35;10.02;;;5.57;;
18302;SDS011;9277;37.980;23.748;2024-03-07T06:36:02;10.25;;;5.30;;
18302;SDS011;9277;37.980;23.748;2024-03-07T06:38:30;8.30;;;4.68;;
18302;SDS011;9277;37.980;23.748;2024-03-07T06:40:58;13.57;;;5.30;;
18302;SDS011;9277;37.980;23.748;2024-03-07T06:43:24;12.13;;;5.35;;
18302;SDS011;9277;37.980;23.748;2024-03-07T06:45:51;10.60;;;4.72;;
18302;SDS011;9277;37.980;23.748;2024-03-07T06:48:18;17.98;;;6.30;;
18302;SDS011;9277;37.980;23.748;2024-03-07T06:50:44;15.20;;;6.20;;
18302;SDS011;9277;37.980;23.748;2024-03-07T06:53:11;11.07;;;5.18;;
18302;SDS011;9277;37.980;23.748;2024-03-07T06:55:47;11.30;;;5.35;;
18302;SDS011;9277;37.980;23.748;2024-03-07T06:58:16;8.13;;;4.55;;
18302;SDS011;9277;37.980;23.748;2024-03-07T07:00:43;13.07;;;5.63;;
18302;SDS011;9277;37.980;23.748;2024-03-07T07:03:10;12.43;;;4.78;;
18302;SDS011;9277;37.980;23.748;2024-03-07T07:05:38;14.13;;;5.45;;
18302;SDS011;9277;37.980;23.748;2024-03-07T07:08:06;13.88;;;5.45;;
18302;SDS011;9277;37.980;23.748;2024-03-07T07:10:32;9.25;;;5.35;;
18302;SDS011;9277;37.980;23.748;2024-03-07T07:13:01;11.43;;;6.07;;
18302;SDS011;9277;37.980;23.748;2024-03-07T07:15:29;11.60;;;6.20;;
18302;SDS011;9277;37.980;23.748;2024-03-07T07:17:56;14.25;;;5.72;;
18302;SDS011;9277;37.980;23.748;2024-03-07T07:20:23;12.75;;;6.07;;
18302;SDS011;9277;37.980;23.748;2024-03-07T07:22:50;13.27;;;6.80;;
18302;SDS011;9277;37.980;23.748;2024-03-07T07:25:18;15.52;;;6.90;;
18302;SDS011;9277;37.980;23.748;2024-03-07T07:27:47;15.40;;;7.25;;
18302;SDS011;9277;37.980;23.748;2024-03-07T07:30:16;12.38;;;6.38;;
18302;SDS011;9277;37.980;23.748;2024-03-07T07:32:43;15.02;;;6.15;;
18302;SDS011;9277;37.980;23.748;2024-03-07T07:35:10;22.17;;;6.75;;
18302;SDS011;9277;37.980;23.748;2024-03-07T07:37:38;24.10;;;10.10;;
18302;SDS011;9277;37.980;23.748;2024-03-07T07:40:05;15.88;;;6.47;;
18302;SDS011;9277;37.980;23.748;2024-03-07T07:42:34;19.48;;;6.63;;
18302;SDS011;9277;37.980;23.748;2024-03-07T07:45:04;12.65;;;5.78;;
18302;SDS011;9277;37.980;23.748;2024-03-07T07:47:33;10.63;;;5.05;;
18302;SDS011;9277;37.980;23.748;2024-03-07T07:50:03;6.45;;;4.43;;
18302;SDS011;9277;37.980;23.748;2024-03-07T07:52:32;10.40;;;4.57;;
18302;SDS011;9277;37.980;23.748;2024-03-07T07:55:00;9.13;;;4.30;;
18302;SDS011;9277;37.980;23.748;2024-03-07T07:57:27;11.20;;;4.57;;
18302;SDS011;9277;37.980;23.748;2024-03-07T07:59:54;10.57;;;4.18;;
18302;SDS011;9277;37.980;23.748;2024-03-07T08:02:21;13.45;;;5.00;;
18302;SDS011;9277;37.980;23.748;2024-03-07T08:04:51;7.38;;;4.28;;
18302;SDS011;9277;37.980;23.748;2024-03-07T08:07:18;8.98;;;4.20;;
18302;SDS011;9277;37.980;23.748;2024-03-07T08:09:46;10.48;;;4.45;;
18302;SDS011;9277;37.980;23.748;2024-03-07T08:12:13;16.98;;;6.50;;
18302;SDS011;9277;37.980;23.748;2024-03-07T08:14:39;12.18;;;6.45;;
18302;SDS011;9277;37.980;23.748;2024-03-07T08:17:06;15.57;;;6.30;;
18302;SDS011;9277;37.980;23.748;2024-03-07T08:19:33;12.15;;;5.55;;
18302;SDS011;9277;37.980;23.748;2024-03-07T08:22:01;11.50;;;4.55;;
18302;SDS011;9277;37.980;23.748;2024-03-07T08:24:28;8.32;;;4.95;;
18302;SDS011;9277;37.980;23.748;2024-03-07T08:26:55;9.25;;;3.92;;
18302;SDS011;9277;37.980;23.748;2024-03-07T08:29:21;14.52;;;3.95;;
18302;SDS011;9277;37.980;23.748;2024-03-07T08:31:49;6.63;;;3.70;;
18302;SDS011;9277;37.980;23.748;2024-03-07T08:34:16;5.60;;;3.38;;
18302;SDS011;9277;37.980;23.748;2024-03-07T08:36:42;7.45;;;4.00;;
18302;SDS011;9277;37.980;23.748;2024-03-07T08:39:11;8.05;;;4.35;;
18302;SDS011;9277;37.980;23.748;2024-03-07T08:41:39;10.57;;;4.47;;
18302;SDS011;9277;37.980;23.748;2024-03-07T08:44:06;11.13;;;4.13;;
18302;SDS011;9277;37.980;23.748;2024-03-07T08:46:34;8.80;;;4.15;;
18302;SDS011;9277;37.980;23.748;2024-03-07T08:49:01;7.65;;;4.45;;
18302;SDS011;9277;37.980;23.748;2024-03-07T08:51:28;6.45;;;3.33;;
18302;SDS011;9277;37.980;23.748;2024-03-07T08:53:55;6.55;;;3.58;;
18302;SDS011;9277;37.980;23.748;2024-03-07T08:56:23;7.07;;;3.88;;
18302;SDS011;9277;37.980;23.748;2024-03-07T08:58:49;6.65;;;3.70;;
18302;SDS011;9277;37.980;23.748;2024-03-07T09:01:16;9.52;;;4.22;;
18302;SDS011;9277;37.980;23.748;2024-03-07T09:03:43;12.13;;;4.35;;
18302;SDS011;9277;37.980;23.748;2024-03-07T09:06:10;10.40;;;5.25;;
18302;SDS011;9277;37.980;23.748;2024-03-07T09:08:38;6.85;;;3.60;;
18302;SDS011;9277;37.980;23.748;2024-03-07T09:11:05;4.35;;;3.25;;
18302;SDS011;9277;37.980;23.748;2024-03-07T09:13:33;4.97;;;3.30;;
18302;SDS011;9277;37.980;23.748;2024-03-07T09:16:03;10.30;;;3.92;;
18302;SDS011;9277;37.980;23.748;2024-03-07T09:18:30;9.13;;;4.15;;
18302;SDS011;9277;37.980;23.748;2024-03-07T09:20:57;10.63;;;4.53;;
18302;SDS011;9277;37.980;23.748;2024-03-07T09:23:24;12.70;;;4.85;;
18302;SDS011;9277;37.980;23.748;2024-03-07T09:25:50;10.57;;;3.97;;
18302;SDS011;9277;37.980;23.748;2024-03-07T09:28:17;12.27;;;5.15;;
18302;SDS011;9277;37.980;23.748;2024-03-07T09:30:45;7.22;;;4.60;;
18302;SDS011;9277;37.980;23.748;2024-03-07T09:33:12;9.15;;;4.60;;
18302;SDS011;9277;37.980;23.748;2024-03-07T09:35:41;9.88;;;4.00;;
18302;SDS011;9277;37.980;23.748;2024-03-07T09:38:08;7.65;;;4.47;;
18302;SDS011;9277;37.980;23.748;2024-03-07T09:40:36;9.30;;;5.07;;
18302;SDS011;9277;37.980;23.748;2024-03-07T09:43:02;9.93;;;5.00;;
18302;SDS011;9277;37.980;23.748;2024-03-07T09:45:30;6.88;;;4.15;;
18302;SDS011;9277;37.980;23.748;2024-03-07T09:47:59;10.05;;;3.97;;
18302;SDS011;9277;37.980;23.748;2024-03-07T09:50:26;8.65;;;4.45;;
18302;SDS011;9277;37.980;23.748;2024-03-07T09:52:56;4.80;;;3.80;;
18302;SDS011;9277;37.980;23.748;2024-03-07T09:55:25;7.88;;;3.15;;
18302;SDS011;9277;37.980;23.748;2024-03-07T09:57:52;11.32;;;4.30;;
18302;SDS011;9277;37.980;23.748;2024-03-07T10:00:20;9.57;;;3.40;;
18302;SDS011;9277;37.980;23.748;2024-03-07T10:02:53;7.20;;;3.83;;
18302;SDS011;9277;37.980;23.748;2024-03-07T10:05:22;4.68;;;3.58;;
18302;SDS011;9277;37.980;23.748;2024-03-07T10:07:50;9.60;;;4.55;;
18302;SDS011;9277;37.980;23.748;2024-03-07T10:10:20;10.63;;;3.85;;
18302;SDS011;9277;37.980;23.748;2024-03-07T10:12:47;8.50;;;3.53;;
18302;SDS011;9277;37.980;23.748;2024-03-07T10:15:14;11.00;;;5.32;;
18302;SDS011;9277;37.980;23.748;2024-03-07T10:17:42;5.72;;;3.88;;
18302;SDS011;9277;37.980;23.748;2024-03-07T10:20:11;6.18;;;3.90;;
18302;SDS011;9277;37.980;23.748;2024-03-07T10:22:40;7.78;;;4.55;;
18302;SDS011;9277;37.980;23.748;2024-03-07T10:25:07;7.97;;;4.10;;
18302;SDS011;9277;37.980;23.748;2024-03-07T10:27:36;11.07;;;4.85;;
18302;SDS011;9277;37.980;23.748;2024-03-07T10:30:03;10.43;;;4.10;;
18302;SDS011;9277;37.980;23.748;2024-03-07T10:32:32;9.07;;;4.07;;
18302;SDS011;9277;37.980;23.748;2024-03-07T10:34:59;7.00;;;4.38;;
18302;SDS011;9277;37.980;23.748;2024-03-07T10:37:26;10.25;;;3.92;;
18302;SDS011;9277;37.980;23.748;2024-03-07T10:39:54;10.43;;;4.50;;
18302;SDS011;9277;37.980;23.748;2024-03-07T10:42:21;10.80;;;4.20;;
18302;SDS011;9277;37.980;23.748;2024-03-07T10:44:50;9.40;;;4.78;;
18302;SDS011;9277;37.980;23.748;2024-03-07T10:47:21;19.40;;;8.60;;
18302;SDS011;9277;37.980;23.748;2024-03-07T10:49:51;9.13;;;4.15;;
18302;SDS011;9277;37.980;23.748;2024-03-07T10:52:23;4.28;;;3.38;;
18302;SDS011;9277;37.980;23.748;2024-03-07T10:54:58;4.95;;;3.47;;
18302;SDS011;9277;37.980;23.748;2024-03-07T10:57:29;8.40;;;4.60;;
18302;SDS011;9277;37.980;23.748;2024-03-07T10:59:59;8.85;;;4.03;;
18302;SDS011;9277;37.980;23.748;2024-03-07T11:02:37;8.20;;;3.50;;
18302;SDS011;9277;37.980;23.748;2024-03-07T11:05:10;8.88;;;3.70;;
18302;SDS011;9277;37.980;23.748;2024-03-07T11:07:37;7.07;;;3.72;;
18302;SDS011;9277;37.980;23.748;2024-03-07T11:10:06;8.77;;;3.95;;
18302;SDS011;9277;37.980;23.748;2024-03-07T11:12:36;7.93;;;4.35;;
18302;SDS011;9277;37.980;23.748;2024-03-07T11:15:04;8.52;;;4.10;;
18302;SDS011;9277;37.980;23.748;2024-03-07T11:17:33;8.60;;;3.72;;
18302;SDS011;9277;37.980;23.748;2024-03-07T11:20:20;5.97;;;4.22;;
18302;SDS011;9277;37.980;23.748;2024-03-07T11:22:48;6.57;;;4.30;;
18302;SDS011;9277;37.980;23.748;2024-03-07T11:25:18;10.10;;;4.00;;
18302;SDS011;9277;37.980;23.748;2024-03-07T11:27:53;9.35;;;4.32;;
18302;SDS011;9277;37.980;23.748;2024-03-07T11:30:21;9.00;;;4.47;;
18302;SDS011;9277;37.980;23.748;2024-03-07T11:32:48;6.78;;;4.00;;
18302;SDS011;9277;37.980;23.748;2024-03-07T11:35:18;5.15;;;3.72;;
18302;SDS011;9277;37.980;23.748;2024-03-07T11:37:50;7.78;;;3.55;;
18302;SDS011;9277;37.980;23.748;2024-03-07T11:43:11;6.90;;;3.65;;
18302;SDS011;9277;37.980;23.748;2024-03-07T11:45:38;7.13;;;4.13;;
18302;SDS011;9277;37.980;23.748;2024-03-07T11:48:10;8.00;;;3.95;;
18302;SDS011;9277;37.980;23.748;2024-03-07T11:50:37;9.40;;;4.80;;
18302;SDS011;9277;37.980;23.748;2024-03-07T11:53:04;5.07;;;2.85;;
18302;SDS011;9277;37.980;23.748;2024-03-07T11:55:31;4.43;;;3.40;;
18302;SDS011;9277;37.980;23.748;2024-03-07T11:58:07;9.20;;;3.88;;
18302;SDS011;9277;37.980;23.748;2024-03-07T12:00:35;9.40;;;4.35;;
18302;SDS011;9277;37.980;23.748;2024-03-07T12:03:04;11.40;;;4.28;;
18302;SDS011;9277;37.980;23.748;2024-03-07T12:05:32;9.25;;;3.88;;
18302;SDS011;9277;37.980;23.748;2024-03-07T12:08:00;9.75;;;4.05;;
18302;SDS011;9277;37.980;23.748;2024-03-07T12:10:30;8.32;;;3.90;;
18302;SDS011;9277;37.980;23.748;2024-03-07T12:12:58;10.15;;;4.25;;
18302;SDS011;9277;37.980;23.748;2024-03-07T12:15:26;5.53;;;3.88;;
18302;SDS011;9277;37.980;23.748;2024-03-07T12:17:55;8.85;;;4.43;;
18302;SDS011;9277;37.980;23.748;2024-03-07T12:20:23;8.20;;;4.55;;
18302;SDS011;9277;37.980;23.748;2024-03-07T12:22:56;8.38;;;4.57;;
18302;SDS011;9277;37.980;23.748;2024-03-07T12:25:23;10.90;;;4.53;;
18302;SDS011;9277;37.980;23.748;2024-03-07T12:28:00;9.23;;;4.60;;
18302;SDS011;9277;37.980;23.748;2024-03-07T12:30:28;7.13;;;4.00;;
18302;SDS011;9277;37.980;23.748;2024-03-07T12:32:59;7.00;;;4.20;;
18302;SDS011;9277;37.980;23.748;2024-03-07T12:35:26;7.82;;;5.00;;
18302;SDS011;9277;37.980;23.748;2024-03-07T12:37:52;12.68;;;4.72;;
18302;SDS011;9277;37.980;23.748;2024-03-07T12:40:19;8.48;;;4.47;;
18302;SDS011;9277;37.980;23.748;2024-03-07T12:42:50;7.50;;;4.18;;
18302;SDS011;9277;37.980;23.748;2024-03-07T12:45:18;5.35;;;3.30;;
18302;SDS011;9277;37.980;23.748;2024-03-07T12:47:46;5.25;;;3.53;;
18302;SDS011;9277;37.980;23.748;2024-03-07T12:50:17;7.38;;;3.78;;
18302;SDS011;9277;37.980;23.748;2024-03-07T12:52:45;6.30;;;3.60;;
18302;SDS011;9277;37.980;23.748;2024-03-07T12:55:15;7.18;;;3.60;;
18302;SDS011;9277;37.980;23.748;2024-03-07T12:57:43;9.90;;;4.68;;
18302;SDS011;9277;37.980;23.748;2024-03-07T13:00:10;11.52;;;4.95;;
18302;SDS011;9277;37.980;23.748;2024-03-07T13:02:44;6.63;;;4.35;;
18302;SDS011;9277;37.980;23.748;2024-03-07T13:05:11;7.88;;;4.80;;
18302;SDS011;9277;37.980;23.748;2024-03-07T13:07:46;9.30;;;3.45;;
18302;SDS011;9277;37.980;23.748;2024-03-07T13:10:13;8.35;;;4.28;;
18302;SDS011;9277;37.980;23.748;2024-03-07T13:12:44;7.65;;;4.03;;
18302;SDS011;9277;37.980;23.748;2024-03-07T13:15:14;7.40;;;4.10;;
18302;SDS011;9277;37.980;23.748;2024-03-07T13:17:40;7.70;;;4.05;;
18302;SDS011;9277;37.980;23.748;2024-03-07T13:20:08;8.20;;;4.00;;
18302;SDS011;9277;37.980;23.748;2024-03-07T13:22:41;10.63;;;4.45;;
18302;SDS011;9277;37.980;23.748;2024-03-07T13:25:14;9.73;;;4.00;;
18302;SDS011;9277;37.980;23.748;2024-03-07T13:27:43;7.90;;;3.50;;
18302;SDS011;9277;37.980;23.748;2024-03-07T13:30:11;7.45;;;4.72;;
18302;SDS011;9277;37.980;23.748;2024-03-07T13:32:51;9.13;;;3.47;;
18302;SDS011;9277;37.980;23.748;2024-03-07T13:35:19;5.45;;;3.38;;
18302;SDS011;9277;37.980;23.748;2024-03-07T13:37:46;7.45;;;3.78;;
18302;SDS011;9277;37.980;23.748;2024-03-07T13:40:15;5.57;;;3.10;;
18302;SDS011;9277;37.980;23.748;2024-03-07T13:42:52;6.00;;;3.00;;
18302;SDS011;9277;37.980;23.748;2024-03-07T13:45:23;7.43;;;3.78;;
18302;SDS011;9277;37.980;23.748;2024-03-07T13:47:51;12.82;;;4.60;;
18302;SDS011;9277;37.980;23.748;2024-03-07T13:50:19;11.52;;;4.53;;
18302;SDS011;9277;37.980;23.748;2024-03-07T13:52:47;6.70;;;3.65;;
18302;SDS011;9277;37.980;23.748;2024-03-07T13:55:29;7.75;;;3.78;;
18302;SDS011;9277;37.980;23.748;2024-03-07T13:57:56;9.52;;;4.22;;
18302;SDS011;9277;37.980;23.748;2024-03-07T14:00:30;10.05;;;4.80;;
18302;SDS011;9277;37.980;23.748;2024-03-07T14:06:02;17.52;;;5.10;;
18302;SDS011;9277;37.980;23.748;2024-03-07T14:11:33;11.52;;;4.57;;
18302;SDS011;9277;37.980;23.748;2024-03-07T14:14:08;16.10;;;5.03;;
18302;SDS011;9277;37.980;23.748;2024-03-07T14:16:52;8.20;;;4.65;;
18302;SDS011;9277;37.980;23.748;2024-03-07T14:22:14;13.55;;;5.25;;
18302;SDS011;9277;37.980;23.748;2024-03-07T14:27:34;11.50;;;6.28;;
18302;SDS011;9277;37.980;23.748;2024-03-07T14:30:24;8.90;;;5.50;;
18302;SDS011;9277;37.980;23.748;2024-03-07T14:32:53;8.30;;;5.40;;
18302;SDS011;9277;37.980;23.748;2024-03-07T14:35:23;15.77;;;6.07;;
18302;SDS011;9277;37.980;23.748;2024-03-07T14:37:52;8.43;;;4.78;;
18302;SDS011;9277;37.980;23.748;2024-03-07T14:40:21;10.32;;;5.25;;
18302;SDS011;9277;37.980;23.748;2024-03-07T14:42:51;10.98;;;6.20;;
18302;SDS011;9277;37.980;23.748;2024-03-07T14:45:21;9.23;;;5.00;;
18302;SDS011;9277;37.980;23.748;2024-03-07T14:47:49;11.02;;;6.50;;
18302;SDS011;9277;37.980;23.748;2024-03-07T14:50:17;8.20;;;5.55;;
18302;SDS011;9277;37.980;23.748;2024-03-07T14:52:45;12.57;;;5.05;;
18302;SDS011;9277;37.980;23.748;2024-03-07T14:55:12;14.20;;;5.28;;
18302;SDS011;9277;37.980;23.748;2024-03-07T14:57:44;10.73;;;5.85;;
18302;SDS011;9277;37.980;23.748;2024-03-07T15:00:13;10.07;;;5.47;;
18302;SDS011;9277;37.980;23.748;2024-03-07T15:02:45;14.00;;;5.43;;